MET'MAP v2.0
soon released !

Expected late october,
this new version will be
more efficient, smarter,
and hosted on a brand new
server x3 powerfull...
...and still free !


Not compatible ?
Try the mobile version !

LOG IN : | Subscribe | Disclaimer | Who is Orbifly ? |
ICAO code :

TAF - LSZL Locarno - 24 Jan 2020 07:33 UTC
Data Sources :     NOAA   


- Airport Elevation : 650 ft
- IATA code : ZJI
- No reported NOTAMs.


LSZL - Locarno

Latest METAR recorded : 2015/08/11 07:50 LSZL 110750Z VRB02KT CAVOK 24/17 Q1015 RMK BLU
TAF TAF LSZL
Valid from the 24 at 06:00 until the 24 at 15:00 UTC


240525Z 2406/2415 VRB03KT CAVOK
TEMPO 2406/2410 9999 SCT120
BECMG 2410/2413 9999 BKN100

Source NOAA


MET'MAP, your aeronautical weather chart ! - Copyright ORBIFLY December 2007

Programming & Development : Alexandra Zaïnal
Co-Developer : Marc-Olivier Méhu
Technical & hardware support : Manuel Goepfert
Concept & Financing : Baudouin d'Aumeries